Terminal Aerodrome Forecast
Issued by NWS

Home | Current Version | Previous Version | Graphics & Text | Print | Product List | Glossary On
Versions: 1 2 3 4 5 6 7 8 9 10 11 12 13 14 15 16 17
000
FTUS41 KCLE 050559 CCA
TAFFDY
TAF COR
KFDY 050559Z 0506/0606 25015G25KT P6SM OVC009
     FM050800 25012KT P6SM OVC008
     FM051500 24008KT P6SM OVC015
     FM052000 VRB04KT P6SM SCT250=

USA.gov is the U.S. government's official web portal to all federal, state and local government web resources and services.